createdAt,value
2018-04-15T00:01:18.787Z,100298.31
2018-04-15T00:03:46.179Z,100292.70
2018-04-15T00:06:13.576Z,100289.53
2018-04-15T00:08:40.962Z,100285.83
2018-04-15T00:11:08.359Z,100285.64
2018-04-15T00:13:35.739Z,100280.14
2018-04-15T00:16:03.126Z,100288.88
2018-04-15T00:18:30.511Z,100284.41
2018-04-15T00:20:57.907Z,100286.34
2018-04-15T00:23:25.331Z,100277.55
2018-04-15T00:25:52.791Z,100278.89
2018-04-15T00:28:20.179Z,100271.25
2018-04-15T00:30:47.979Z,100279.53
2018-04-15T00:33:15.373Z,100276.21
2018-04-15T00:35:42.759Z,100269.98
2018-04-15T00:38:10.151Z,100264.26
2018-04-15T00:40:37.561Z,100270.43
2018-04-15T00:43:04.951Z,100272.25
2018-04-15T00:45:32.335Z,100270.11
2018-04-15T00:47:59.727Z,100272.48
2018-04-15T00:50:27.115Z,100264.33
2018-04-15T00:52:54.579Z,100271.00
2018-04-15T00:55:21.969Z,100268.64
2018-04-15T00:57:49.363Z,100266.41
2018-04-15T01:00:16.754Z,100267.52
2018-04-15T01:02:44.174Z,100257.91
2018-04-15T01:05:11.567Z,100258.67
2018-04-15T01:07:38.960Z,100250.63
2018-04-15T01:10:06.350Z,100254.30
2018-04-15T01:12:33.738Z,100251.11
2018-04-15T01:15:01.139Z,100248.87
2018-04-15T01:17:28.532Z,100250.98
2018-04-15T01:19:55.922Z,100240.72
2018-04-15T01:22:23.311Z,100247.14
2018-04-15T01:24:50.711Z,100249.89
2018-04-15T01:27:18.096Z,100238.94
2018-04-15T01:29:45.494Z,100246.98
2018-04-15T01:32:12.887Z,100245.77
2018-04-15T01:34:40.287Z,100241.64
2018-04-15T01:37:07.663Z,100233.75
2018-04-15T01:39:35.063Z,100233.41
2018-04-15T01:42:02.459Z,100228.10
2018-04-15T01:44:29.846Z,100230.78
2018-04-15T01:46:57.244Z,100221.58
2018-04-15T01:49:24.634Z,100225.53
2018-04-15T01:51:52.027Z,100216.12
2018-04-15T01:54:19.419Z,100222.19
2018-04-15T01:56:46.819Z,100219.69
2018-04-15T01:59:14.203Z,100217.03
2018-04-15T02:01:41.599Z,100218.22
2018-04-15T02:04:08.989Z,100216.10
2018-04-15T02:06:36.564Z,100212.91
2018-04-15T02:09:03.947Z,100206.37
2018-04-15T02:11:31.336Z,100212.63
2018-04-15T02:13:58.734Z,100213.67
2018-04-15T02:16:26.123Z,100215.55
2018-04-15T02:18:53.522Z,100211.63
2018-04-15T02:21:20.911Z,100216.13
2018-04-15T02:23:48.307Z,100209.36
2018-04-15T02:26:15.692Z,100209.49
2018-04-15T02:28:43.088Z,100213.98
2018-04-15T02:31:10.475Z,100206.79
2018-04-15T02:33:37.883Z,100204.23
2018-04-15T02:36:05.265Z,100199.70
2018-04-15T02:38:32.659Z,100191.78
2018-04-15T02:41:00.056Z,100194.81
2018-04-15T02:43:27.459Z,100199.83
2018-04-15T02:45:54.844Z,100204.19
2018-04-15T02:48:22.311Z,100198.58
2018-04-15T02:50:49.703Z,100197.81
2018-04-15T02:53:17.093Z,100192.99
2018-04-15T02:55:44.487Z,100190.79
2018-04-15T02:58:11.875Z,100186.70
2018-04-15T03:00:39.275Z,100178.19
2018-04-15T03:03:06.720Z,100173.75
2018-04-15T03:05:34.118Z,100172.41
2018-04-15T03:08:01.504Z,100171.51
2018-04-15T03:10:28.902Z,100170.49
2018-04-15T03:12:56.747Z,100167.02
2018-04-15T03:15:24.138Z,100160.84
2018-04-15T03:17:51.603Z,100156.92
2018-04-15T03:20:19.007Z,100155.29
2018-04-15T03:22:46.403Z,100151.58
2018-04-15T03:25:13.790Z,100152.05
2018-04-15T03:27:41.634Z,100153.84
2018-04-15T03:30:09.027Z,100149.54
2018-04-15T03:32:36.422Z,100152.80
2018-04-15T03:35:03.811Z,100158.03
2018-04-15T03:37:31.198Z,100152.45
2018-04-15T03:39:58.583Z,100157.21
2018-04-15T03:42:25.974Z,100158.44
2018-04-15T03:44:53.367Z,100154.03
2018-04-15T03:47:20.751Z,100151.23
2018-04-15T03:49:48.139Z,100151.05
2018-04-15T03:52:15.546Z,100148.25
2018-04-15T03:54:42.926Z,100151.30
2018-04-15T03:57:10.311Z,100155.70
2018-04-15T03:59:37.748Z,100148.88
2018-04-15T04:02:05.143Z,100154.55
2018-04-15T04:04:32.531Z,100151.52
2018-04-15T04:06:59.919Z,100156.16
2018-04-15T04:09:27.359Z,100150.51
2018-04-15T04:11:54.750Z,100157.16
2018-04-15T04:14:22.143Z,100152.27
2018-04-15T04:16:49.538Z,100157.62
2018-04-15T04:19:28.715Z,100155.94
2018-04-15T04:22:07.886Z,100155.81
2018-04-15T04:27:42.218Z,100152.33
2018-04-15T04:30:09.611Z,100148.02
2018-04-15T04:32:37.003Z,100164.38
2018-04-15T04:35:04.418Z,100158.57
2018-04-15T04:37:31.823Z,100157.45
2018-04-15T04:39:59.203Z,100156.71
2018-04-15T04:42:26.599Z,100158.75
2018-04-15T04:44:53.982Z,100155.60
2018-04-15T04:47:21.443Z,100154.92
2018-04-15T04:49:48.838Z,100150.30
2018-04-15T04:52:16.254Z,100160.34
2018-04-15T04:54:43.642Z,100156.55
2018-04-15T04:57:11.062Z,100153.97
2018-04-15T04:59:38.489Z,100156.03
2018-04-15T05:02:05.904Z,100153.81
2018-04-15T05:04:33.288Z,100158.86
2018-04-15T05:07:00.676Z,100159.92
2018-04-15T05:09:28.071Z,100161.77
2018-04-15T05:11:55.454Z,100156.41
2018-04-15T05:14:22.860Z,100158.86
2018-04-15T05:16:50.243Z,100156.77
2018-04-15T05:19:17.648Z,100155.59
2018-04-15T05:21:45.031Z,100152.22
2018-04-15T05:24:12.423Z,100145.64
2018-04-15T05:26:39.815Z,100142.17
2018-04-15T05:29:07.203Z,100139.00
2018-04-15T05:31:34.602Z,100140.52
2018-04-15T05:34:01.998Z,100134.27
2018-04-15T05:36:29.410Z,100133.67
2018-04-15T05:38:56.810Z,100124.73
2018-04-15T05:41:24.209Z,100127.85
2018-04-15T05:43:51.637Z,100120.52
2018-04-15T05:46:19.027Z,100122.73
2018-04-15T05:48:46.424Z,100120.07
2018-04-15T05:51:13.819Z,100113.09
2018-04-15T05:53:41.223Z,100109.95
2018-04-15T05:56:08.620Z,100110.70
2018-04-15T05:58:36.044Z,100110.17
2018-04-15T06:01:03.437Z,100107.33
2018-04-15T06:03:30.824Z,100102.31
2018-04-15T06:05:58.227Z,100100.73
2018-04-15T06:08:25.619Z,100096.02
2018-04-15T06:10:53.015Z,100087.92
2018-04-15T06:13:20.499Z,100088.76
2018-04-15T06:15:47.899Z,100092.32
2018-04-15T06:18:15.282Z,100086.03
2018-04-15T06:20:42.690Z,100083.71
2018-04-15T06:23:10.082Z,100075.39
2018-04-15T06:25:37.475Z,100078.01
2018-04-15T06:28:04.891Z,100064.37
2018-04-15T06:30:32.278Z,100063.45
2018-04-15T06:32:59.681Z,100062.06
2018-04-15T06:35:27.066Z,100053.67
2018-04-15T06:37:54.458Z,100055.53
2018-04-15T06:40:21.855Z,100048.55
2018-04-15T06:42:49.247Z,100050.16
2018-04-15T06:45:16.759Z,100044.98
2018-04-15T06:47:44.029Z,100039.63
2018-04-15T06:50:11.431Z,100032.03
2018-04-15T06:52:38.823Z,100032.34
2018-04-15T06:55:06.231Z,100028.75
2018-04-15T06:57:33.620Z,100027.20
2018-04-15T07:00:01.003Z,100018.89
2018-04-15T07:02:28.391Z,100019.11
2018-04-15T07:04:55.782Z,100021.72
2018-04-15T07:07:23.180Z,100023.05
2018-04-15T07:09:50.568Z,100028.78
2018-04-15T07:12:18.298Z,100028.21
2018-04-15T07:14:45.680Z,100027.23
2018-04-15T07:17:13.067Z,100028.56
2018-04-15T07:19:40.459Z,100025.66
2018-04-15T07:22:07.839Z,100028.13
2018-04-15T07:24:35.230Z,100013.57
2018-04-15T07:27:02.615Z,100012.22
2018-04-15T07:29:30.019Z,100013.36
2018-04-15T07:31:57.477Z,100007.45
2018-04-15T07:34:24.862Z,100029.67
2018-04-15T07:36:52.259Z,100024.66
2018-04-15T07:39:19.650Z,100025.31
2018-04-15T07:41:47.051Z,100022.45
2018-04-15T07:44:14.439Z,100017.30
2018-04-15T07:46:41.831Z,100016.56
2018-04-15T07:49:09.219Z,100009.91
2018-04-15T07:51:36.619Z,100008.08
2018-04-15T07:54:04.007Z,100007.64
2018-04-15T07:56:31.393Z,100009.28
2018-04-15T07:58:58.782Z,100021.39
2018-04-15T08:01:26.168Z,100015.02
2018-04-15T08:03:54.571Z,100014.23
2018-04-15T08:06:21.963Z,100008.62
2018-04-15T08:08:49.371Z,100003.58
2018-04-15T08:11:16.751Z,100013.42
2018-04-15T08:13:45.786Z,100013.37
2018-04-15T08:16:13.171Z,100008.76
2018-04-15T08:18:40.718Z,100008.25
2018-04-15T08:21:08.106Z,100008.91
2018-04-15T08:23:35.496Z,100008.12
2018-04-15T08:26:02.891Z,100003.86
2018-04-15T08:28:30.752Z,100005.39
2018-04-15T08:30:58.131Z,99993.65
2018-04-15T08:33:25.511Z,99991.52
2018-04-15T08:35:52.919Z,99993.37
2018-04-15T08:38:20.382Z,100000.55
2018-04-15T08:40:47.809Z,99995.93
2018-04-15T08:43:15.227Z,100002.00
2018-04-15T08:45:42.590Z,99995.63
2018-04-15T08:48:10.041Z,99993.13
2018-04-15T08:50:37.431Z,99994.25
2018-04-15T08:53:04.814Z,99989.61
2018-04-15T08:55:32.191Z,99990.06
2018-04-15T08:57:59.583Z,99988.72
2018-04-15T09:00:27.005Z,99981.92
2018-04-15T09:02:54.354Z,99985.66
2018-04-15T09:05:21.747Z,99972.58
2018-04-15T09:07:49.123Z,99966.08
2018-04-15T09:10:16.523Z,99961.34
2018-04-15T09:12:43.894Z,99966.84
2018-04-15T09:15:11.283Z,99973.23
2018-04-15T09:17:38.666Z,99970.01
2018-04-15T09:20:06.062Z,99967.36
2018-04-15T09:22:33.443Z,99972.31
2018-04-15T09:25:00.815Z,99972.91
2018-04-15T09:27:28.194Z,99966.20
2018-04-15T09:29:55.570Z,99964.03
2018-04-15T09:32:22.963Z,99952.22
2018-04-15T09:34:50.335Z,99953.66
2018-04-15T09:37:17.718Z,99947.42
2018-04-15T09:39:45.146Z,99949.19
2018-04-15T09:42:12.517Z,99951.63
2018-04-15T09:44:39.891Z,99955.06
2018-04-15T09:47:07.277Z,99950.85
2018-04-15T09:49:34.653Z,99944.06
2018-04-15T09:52:02.395Z,99946.66
2018-04-15T09:54:29.770Z,99952.34
2018-04-15T09:56:57.153Z,99951.34
2018-04-15T09:59:24.538Z,99953.69
2018-04-15T10:01:51.923Z,99953.83
2018-04-15T10:04:19.299Z,99953.39
2018-04-15T10:06:46.683Z,99945.03
2018-04-15T10:09:14.066Z,99945.88
2018-04-15T10:11:41.454Z,99944.62
2018-04-15T10:14:08.851Z,99948.83
2018-04-15T10:16:36.211Z,99950.98
2018-04-15T10:19:03.591Z,99948.67
2018-04-15T10:21:30.975Z,99948.56
2018-04-15T10:23:58.379Z,99948.83
2018-04-15T10:26:25.752Z,99939.78
2018-04-15T10:28:53.128Z,99941.13
2018-04-15T10:31:20.522Z,99939.63
2018-04-15T10:33:47.907Z,99935.73
2018-04-15T10:36:15.291Z,99932.06
2018-04-15T10:38:42.735Z,99928.88
2018-04-15T10:41:10.096Z,99927.87
2018-04-15T10:43:37.468Z,99929.27
2018-04-15T10:46:04.901Z,99918.23
2018-04-15T10:48:32.226Z,99907.19
2018-04-15T10:50:59.651Z,99911.39
2018-04-15T10:53:27.029Z,99911.89
2018-04-15T10:55:54.411Z,99911.84
2018-04-15T10:58:21.792Z,99920.92
2018-04-15T11:00:49.176Z,99917.85
2018-04-15T11:03:16.552Z,99915.45
2018-04-15T11:05:43.926Z,99916.41
2018-04-15T11:08:11.323Z,99911.98
2018-04-15T11:10:38.707Z,99908.51
2018-04-15T11:13:06.082Z,99908.45
2018-04-15T11:15:33.467Z,99907.42
2018-04-15T11:18:00.849Z,99906.80
2018-04-15T11:20:28.277Z,99907.41
2018-04-15T11:22:55.655Z,99907.16
2018-04-15T11:25:23.031Z,99900.55
2018-04-15T11:27:50.418Z,99900.70
2018-04-15T11:30:17.794Z,99892.68
2018-04-15T11:32:45.166Z,99892.86
2018-04-15T11:35:12.548Z,99888.75
2018-04-15T11:37:39.927Z,99890.39
2018-04-15T11:40:07.311Z,99887.33
2018-04-15T11:42:34.687Z,99884.23
2018-04-15T11:45:02.088Z,99875.62
2018-04-15T11:47:29.479Z,99879.52
2018-04-15T11:49:56.859Z,99874.95
2018-04-15T11:52:24.239Z,99869.38
2018-04-15T11:54:51.623Z,99868.02
2018-04-15T11:57:19.004Z,99866.81
2018-04-15T11:59:46.375Z,99867.23
2018-04-15T12:02:13.786Z,99865.30
2018-04-15T12:04:41.139Z,99857.70
2018-04-15T12:07:08.514Z,99858.16
2018-04-15T12:09:35.887Z,99847.94
2018-04-15T12:12:03.278Z,99851.81
2018-04-15T12:14:30.659Z,99845.53
2018-04-15T12:16:58.063Z,99846.20
2018-04-15T12:19:25.442Z,99848.34
2018-04-15T12:21:53.271Z,99842.12
2018-04-15T12:24:20.651Z,99844.51
2018-04-15T12:26:48.067Z,99837.86
2018-04-15T12:29:15.412Z,99837.94
2018-04-15T12:31:42.792Z,99839.77
2018-04-15T12:34:10.254Z,99840.05
2018-04-15T12:36:37.738Z,99842.24
2018-04-15T12:39:05.906Z,99833.63
2018-04-15T12:41:33.290Z,99838.91
2018-04-15T12:44:00.668Z,99827.16
2018-04-15T12:46:28.058Z,99832.88
2018-04-15T12:48:55.447Z,99829.03
2018-04-15T12:51:23.015Z,99832.00
2018-04-15T12:53:50.407Z,99826.41
2018-04-15T12:56:17.805Z,99822.19
2018-04-15T12:58:45.190Z,99818.31
2018-04-15T13:01:12.583Z,99815.20
2018-04-15T13:03:40.083Z,99812.19
2018-04-15T13:06:07.541Z,99801.55
2018-04-15T13:08:34.887Z,99796.00
2018-04-15T13:11:02.262Z,99801.53
2018-04-15T13:13:29.762Z,99795.86
2018-04-15T13:15:57.151Z,99792.88
2018-04-15T13:18:24.538Z,99787.79
2018-04-15T13:20:51.929Z,99788.86
2018-04-15T13:23:19.396Z,99782.79
2018-04-15T13:25:46.820Z,99778.89
2018-04-15T13:28:14.194Z,99780.66
2018-04-15T13:30:41.633Z,99779.63
2018-04-15T13:33:08.995Z,99776.00
2018-04-15T13:35:36.374Z,99762.37
2018-04-15T13:38:03.755Z,99769.67
2018-04-15T13:40:31.152Z,99761.61
2018-04-15T13:42:58.535Z,99757.39
2018-04-15T13:45:25.929Z,99757.02
2018-04-15T13:47:53.306Z,99752.59
2018-04-15T13:50:20.755Z,99749.97
2018-04-15T13:52:48.143Z,99744.31
2018-04-15T13:55:15.517Z,99736.20
2018-04-15T13:57:42.902Z,99739.00
2018-04-15T14:00:10.295Z,99731.94
2018-04-15T14:02:37.685Z,99726.28
2018-04-15T14:05:05.059Z,99722.19
2018-04-15T14:07:32.446Z,99722.51
2018-04-15T14:09:59.879Z,99718.47
2018-04-15T14:12:27.267Z,99719.63
2018-04-15T14:14:54.634Z,99714.97
2018-04-15T14:17:22.019Z,99714.66
2018-04-15T14:19:49.435Z,99712.21
2018-04-15T14:22:16.820Z,99703.09
2018-04-15T14:24:44.225Z,99701.17
2018-04-15T14:27:11.647Z,99697.16
2018-04-15T14:29:39.023Z,99700.83
2018-04-15T14:32:06.399Z,99700.17
2018-04-15T14:34:33.839Z,99697.83
2018-04-15T14:37:01.224Z,99688.48
2018-04-15T14:39:28.878Z,99684.94
2018-04-15T14:41:56.262Z,99689.05
2018-04-15T14:44:23.846Z,99681.77
2018-04-15T14:46:51.348Z,99682.66
2018-04-15T14:49:18.766Z,99680.73
2018-04-15T14:51:46.176Z,99679.78
2018-04-15T14:54:13.551Z,99679.77
2018-04-15T14:56:40.934Z,99680.19
2018-04-15T14:59:08.444Z,99674.93
2018-04-15T15:01:36.060Z,99672.06
2018-04-15T15:04:03.451Z,99668.52
2018-04-15T15:06:30.839Z,99670.27
2018-04-15T15:08:58.254Z,99665.59
2018-04-15T15:11:25.687Z,99667.92
2018-04-15T15:13:53.066Z,99670.16
2018-04-15T15:16:20.445Z,99675.50
2018-04-15T15:18:47.820Z,99665.02
2018-04-15T15:21:15.190Z,99668.70
2018-04-15T15:23:42.574Z,99665.35
2018-04-15T15:26:09.987Z,99670.75
2018-04-15T15:28:37.415Z,99668.89
2018-04-15T15:31:04.832Z,99664.45
2018-04-15T15:33:32.216Z,99664.02
2018-04-15T15:35:59.624Z,99663.06
2018-04-15T15:38:27.000Z,99665.50
2018-04-15T15:40:54.383Z,99663.34
2018-04-15T15:43:21.765Z,99666.06
2018-04-15T15:45:49.172Z,99650.75
2018-04-15T15:48:16.645Z,99658.45
2018-04-15T15:50:44.223Z,99657.48
2018-04-15T15:53:11.620Z,99658.23
2018-04-15T15:55:39.063Z,99658.42
2018-04-15T15:58:06.456Z,99658.71
2018-04-15T16:00:33.848Z,99655.50
2018-04-15T16:03:01.235Z,99660.20
2018-04-15T16:05:28.729Z,99656.30
2018-04-15T16:07:56.151Z,99658.72
2018-04-15T16:10:23.534Z,99660.50
2018-04-15T16:12:51.154Z,99655.73
2018-04-15T16:15:18.534Z,99658.47
2018-04-15T16:17:45.923Z,99654.38
2018-04-15T16:20:13.312Z,99654.85
2018-04-15T16:22:40.685Z,99653.93
2018-04-15T16:25:08.074Z,99656.72
2018-04-15T16:27:35.538Z,99659.53
2018-04-15T16:30:02.923Z,99655.75
2018-04-15T16:32:30.515Z,99659.48
2018-04-15T16:34:57.953Z,99659.61
2018-04-15T16:37:25.335Z,99664.84
2018-04-15T16:39:52.715Z,99669.31
2018-04-15T16:42:20.123Z,99666.37
2018-04-15T16:44:47.498Z,99675.51
2018-04-15T16:47:14.903Z,99680.47
2018-04-15T16:49:42.282Z,99681.45
2018-04-15T16:52:09.731Z,99682.71
2018-04-15T16:54:37.103Z,99682.91
2018-04-15T16:57:04.490Z,99685.88
2018-04-15T16:59:31.887Z,99689.33
2018-04-15T17:01:59.266Z,99692.81
2018-04-15T17:04:26.733Z,99696.64
2018-04-15T17:06:54.114Z,99703.86
2018-04-15T17:09:21.534Z,99699.41
2018-04-15T17:11:48.999Z,99701.38
2018-04-15T17:14:16.511Z,99705.72
2018-04-15T17:16:43.991Z,99706.50
2018-04-15T17:19:11.464Z,99707.59
2018-04-15T17:21:38.932Z,99708.42
2018-04-15T17:24:06.407Z,99700.42
2018-04-15T17:26:33.848Z,99706.81
2018-04-15T17:29:01.221Z,99709.78
2018-04-15T17:31:28.608Z,99704.94
2018-04-15T17:33:56.166Z,99704.22
2018-04-15T17:36:23.591Z,99707.75
2018-04-15T17:38:50.979Z,99705.20
2018-04-15T17:41:18.366Z,99703.85
2018-04-15T17:43:45.742Z,99704.86
2018-04-15T17:46:13.135Z,99700.70
2018-04-15T17:48:40.519Z,99698.03
2018-04-15T17:51:07.909Z,99698.45
2018-04-15T17:53:35.295Z,99703.47
2018-04-15T17:56:02.679Z,99705.61
2018-04-15T17:58:30.263Z,99710.25
2018-04-15T18:00:57.647Z,99712.13
2018-04-15T18:03:25.032Z,99711.86
2018-04-15T18:05:52.418Z,99713.36
2018-04-15T18:08:19.803Z,99716.88
2018-04-15T18:10:47.206Z,99716.06
2018-04-15T18:13:14.599Z,99724.86
2018-04-15T18:15:41.982Z,99736.59
2018-04-15T18:18:09.352Z,99733.25
2018-04-15T18:20:36.735Z,99734.73
2018-04-15T18:23:04.123Z,99738.11
2018-04-15T18:25:31.503Z,99732.20
2018-04-15T18:27:58.876Z,99735.06
2018-04-15T18:30:26.254Z,99738.14
2018-04-15T18:32:53.623Z,99744.38
2018-04-15T18:35:21.010Z,99741.82
2018-04-15T18:37:48.399Z,99746.64
2018-04-15T18:40:15.782Z,99743.27
2018-04-15T18:42:43.204Z,99748.67
2018-04-15T18:45:10.584Z,99740.42
2018-04-15T18:47:37.974Z,99746.22
2018-04-15T18:50:05.445Z,99746.50
2018-04-15T18:52:32.743Z,99743.94
2018-04-15T18:55:00.119Z,99747.56
2018-04-15T18:57:27.507Z,99748.48
2018-04-15T18:59:54.887Z,99750.20
2018-04-15T19:02:22.408Z,99751.68
2018-04-15T19:04:49.811Z,99752.47
2018-04-15T19:07:17.197Z,99746.27
2018-04-15T19:09:44.605Z,99738.96
2018-04-15T19:12:12.170Z,99740.97
2018-04-15T19:14:39.571Z,99740.69
2018-04-15T19:17:06.951Z,99737.16
2018-04-15T19:19:34.363Z,99734.53
2018-04-15T19:22:01.807Z,99734.27
2018-04-15T19:24:29.182Z,99733.05
2018-04-15T19:26:56.628Z,99740.70
2018-04-15T19:29:24.015Z,99741.59
2018-04-15T19:31:51.403Z,99742.53
2018-04-15T19:34:18.800Z,99744.70
2018-04-15T19:36:46.240Z,99745.89
2018-04-15T19:39:13.643Z,99747.48
2018-04-15T19:41:41.028Z,99744.33
2018-04-15T19:44:08.467Z,99737.01
2018-04-15T19:46:35.855Z,99737.13
2018-04-15T19:49:03.244Z,99732.81
2018-04-15T19:51:30.643Z,99734.95
2018-04-15T19:53:58.027Z,99731.42
2018-04-15T19:56:25.411Z,99733.59
2018-04-15T19:58:52.794Z,99734.72
2018-04-15T20:01:20.178Z,99728.11
2018-04-15T20:03:47.574Z,99731.21
2018-04-15T20:06:14.958Z,99730.66
2018-04-15T20:08:42.357Z,99721.36
2018-04-15T20:11:09.761Z,99725.40
2018-04-15T20:13:37.116Z,99725.13
2018-04-15T20:16:04.506Z,99724.81
2018-04-15T20:18:31.891Z,99719.66
2018-04-15T20:20:59.283Z,99719.50
2018-04-15T20:23:26.675Z,99721.23
2018-04-15T20:25:54.058Z,99719.55
2018-04-15T20:28:21.438Z,99720.94
2018-04-15T20:30:48.826Z,99720.91
2018-04-15T20:33:16.227Z,99719.70
2018-04-15T20:35:43.607Z,99722.88
2018-04-15T20:38:10.991Z,99716.09
2018-04-15T20:40:38.382Z,99723.12
2018-04-15T20:43:05.766Z,99728.18
2018-04-15T20:45:33.155Z,99727.31
2018-04-15T20:48:00.543Z,99729.14
2018-04-15T20:50:27.938Z,99736.09
2018-04-15T20:52:55.327Z,99737.29
2018-04-15T20:55:22.716Z,99741.70
2018-04-15T20:57:50.124Z,99750.41
2018-04-15T21:00:17.503Z,99748.88
2018-04-15T21:02:44.887Z,99751.98
2018-04-15T21:05:12.263Z,99748.64
2018-04-15T21:07:39.658Z,99753.19
2018-04-15T21:10:07.043Z,99754.67
2018-04-15T21:12:34.426Z,99746.48
2018-04-15T21:15:02.318Z,99753.58
2018-04-15T21:17:29.699Z,99760.11
2018-04-15T21:19:57.086Z,99755.80
2018-04-15T21:22:24.469Z,99758.53
2018-04-15T21:24:52.275Z,99762.45
2018-04-15T21:27:19.654Z,99762.37
2018-04-15T21:29:47.035Z,99762.41
2018-04-15T21:32:14.431Z,99770.98
2018-04-15T21:34:41.811Z,99762.83
2018-04-15T21:37:09.198Z,99763.51
2018-04-15T21:39:36.579Z,99755.79
2018-04-15T21:42:03.971Z,99753.05
2018-04-15T21:44:31.347Z,99749.72
2018-04-15T21:46:58.735Z,99749.02
2018-04-15T21:49:26.179Z,99757.08
2018-04-15T21:51:53.559Z,99760.09
2018-04-15T21:54:20.951Z,99750.02
2018-04-15T21:56:48.331Z,99757.89
2018-04-15T21:59:16.075Z,99751.09
2018-04-15T22:01:43.455Z,99749.69
2018-04-15T22:04:10.839Z,99744.63
2018-04-15T22:06:38.226Z,99745.08
2018-04-15T22:09:05.611Z,99748.55
2018-04-15T22:11:44.731Z,99746.05
2018-04-15T22:14:12.115Z,99743.59
2018-04-15T22:16:39.503Z,99739.14
2018-04-15T22:19:06.985Z,99733.36
2018-04-15T22:21:34.362Z,99728.04
2018-04-15T22:24:01.755Z,99726.23
2018-04-15T22:26:29.135Z,99733.98
2018-04-15T22:28:56.523Z,99732.38
2018-04-15T22:31:23.899Z,99739.47
2018-04-15T22:33:51.296Z,99741.82
2018-04-15T22:36:18.671Z,99743.70
2018-04-15T22:38:46.054Z,99748.59
2018-04-15T22:41:13.441Z,99747.22
2018-04-15T22:43:40.822Z,99753.52
2018-04-15T22:46:08.215Z,99748.16
2018-04-15T22:48:41.239Z,99740.56
2018-04-15T22:51:08.650Z,99750.95
2018-04-15T22:53:36.035Z,99739.48
2018-04-15T22:56:09.407Z,99738.48
2018-04-15T22:58:42.435Z,99742.53
2018-04-15T23:01:09.826Z,99742.94
2018-04-15T23:03:37.206Z,99751.75
2018-04-15T23:06:04.591Z,99742.04
2018-04-15T23:08:31.979Z,99740.83
2018-04-15T23:10:59.358Z,99743.72
2018-04-15T23:13:26.751Z,99740.97
2018-04-15T23:15:54.127Z,99738.23
2018-04-15T23:18:21.535Z,99734.58
2018-04-15T23:20:48.914Z,99730.20
2018-04-15T23:23:16.302Z,99718.73
2018-04-15T23:25:43.690Z,99725.90
2018-04-15T23:28:11.078Z,99729.27
2018-04-15T23:30:38.482Z,99740.55
2018-04-15T23:33:05.863Z,99742.59
2018-04-15T23:35:33.268Z,99744.44
2018-04-15T23:38:00.711Z,99744.23
2018-04-15T23:40:28.091Z,99752.19
2018-04-15T23:42:55.487Z,99743.95
2018-04-15T23:45:22.872Z,99744.92
2018-04-15T23:47:50.274Z,99745.87
2018-04-15T23:50:17.660Z,99744.31
2018-04-15T23:52:45.067Z,99742.41
2018-04-15T23:55:12.451Z,99742.61
2018-04-15T23:57:39.830Z,99744.80
